Time;durP1;ratioP1;P1;durP2;ratioP2;P2;SDS_P1;SDS_P2;PMS_P1;PMS_P2;Temp;Humidity;BMP_temperature;BMP_pressure;BME280_temperature;BME280_humidity;BME280_pressure;Samples;Min_cycle;Max_cycle;Signal;HPM_P1;HPM_P2
2022/04/25 00:00:41;;;;;;;14.43;7.30;;;;;;;11.69;56.34;100390.88;5028426;27;96994;-73
2022/04/25 00:03:07;;;;;;;21.40;7.95;;;;;;;11.94;55.33;100387.09;5028552;28;100080;-73
2022/04/25 00:05:34;;;;;;;15.15;8.13;;;;;;;11.46;56.05;100387.50;5025130;27;101196;-74
2022/04/25 00:08:00;;;;;;;17.00;8.20;;;;;;;11.17;57.18;100385.28;5025059;27;96832;-72
2022/04/25 00:10:28;;;;;;;17.38;8.70;;;;;;;11.48;56.96;100390.94;5031487;27;96937;-74
2022/04/25 00:12:54;;;;;;;19.42;8.15;;;;;;;11.69;56.10;100386.44;5022707;27;99133;-73
2022/04/25 00:15:21;;;;;;;18.60;7.00;;;;;;;11.76;56.03;100389.72;5026968;27;101045;-73
2022/04/25 00:17:48;;;;;;;20.13;7.47;;;;;;;12.11;55.91;100398.66;5024221;27;97336;-74
2022/04/25 00:20:14;;;;;;;17.58;7.80;;;;;;;11.57;56.16;100395.81;5029140;27;97713;-72
2022/04/25 00:22:41;;;;;;;16.30;7.80;;;;;;;11.48;56.45;100400.69;5027051;27;99199;-73
2022/04/25 00:25:08;;;;;;;17.15;8.13;;;;;;;11.44;56.36;100407.88;5025065;27;98807;-73
2022/04/25 00:27:36;;;;;;;18.02;8.10;;;;;;;10.90;58.34;100410.25;5023077;27;97601;-69
2022/04/25 00:30:02;;;;;;;19.80;9.10;;;;;;;11.21;57.71;100408.03;5030203;27;97502;-67
2022/04/25 00:32:29;;;;;;;15.40;7.97;;;;;;;11.57;56.46;100403.75;5027459;27;98904;-67
2022/04/25 00:34:56;;;;;;;24.52;8.27;;;;;;;11.56;56.43;100401.16;5030031;27;99116;-73
2022/04/25 00:37:22;;;;;;;18.60;9.07;;;;;;;11.82;55.69;100410.59;5031251;27;96753;-68
2022/04/25 00:39:49;;;;;;;23.27;8.40;;;;;;;11.39;56.91;100401.94;5024126;27;97259;-68
2022/04/25 00:42:15;;;;;;;16.40;8.27;;;;;;;11.27;56.91;100402.47;5017363;27;99024;-68
2022/04/25 00:44:46;;;;;;;16.75;8.63;;;;;;;11.41;56.77;100408.03;5021915;27;99995;-67
2022/04/25 00:47:12;;;;;;;12.80;7.53;;;;;;;11.42;56.54;100407.06;5026234;27;97359;-68
2022/04/25 00:49:39;;;;;;;19.85;8.82;;;;;;;11.24;56.87;100413.19;5026553;27;96841;-74
2022/04/25 00:52:06;;;;;;;18.10;8.45;;;;;;;10.93;58.26;100412.78;5029754;28;99410;-72
2022/04/25 00:54:33;;;;;;;21.58;9.40;;;;;;;11.45;56.66;100412.25;5025505;27;101595;-73
2022/04/25 00:57:00;;;;;;;24.52;9.00;;;;;;;11.10;57.11;100415.53;5029900;27;97028;-73
2022/04/25 00:59:27;;;;;;;18.20;8.73;;;;;;;12.03;55.16;100404.31;5031505;27;96850;-73
2022/04/25 01:01:55;;;;;;;18.67;8.73;;;;;;;11.65;55.70;100407.84;5028351;27;98088;-72
2022/04/25 01:04:22;;;;;;;17.15;8.65;;;;;;;12.30;54.17;100416.28;5025888;27;98874;-74
2022/04/25 01:06:48;;;;;;;19.60;8.80;;;;;;;12.21;54.22;100411.41;5030101;27;96887;-73
2022/04/25 01:09:15;;;;;;;16.23;8.95;;;;;;;11.81;54.90;100417.72;5029964;27;97252;-73
2022/04/25 01:11:42;;;;;;;17.35;9.40;;;;;;;11.51;55.92;100416.41;5030823;27;102233;-73
2022/04/25 01:14:15;;;;;;;19.63;9.25;;;;;;;10.92;57.88;100417.19;5033945;27;99234;-73
2022/04/25 01:16:42;;;;;;;17.48;9.68;;;;;;;10.58;58.73;100417.72;5034781;27;99432;-74
2022/04/25 01:19:10;;;;;;;20.85;9.63;;;;;;;11.02;57.79;100413.25;5040793;27;96620;-73
2022/04/25 01:21:41;;;;;;;13.57;8.75;;;;;;;11.24;57.32;100414.97;5036924;27;97825;-73
2022/04/25 01:29:41;;;;;;;21.38;11.93;;;;;;;10.87;58.46;100418.31;5025456;27;97928;-73
2022/04/25 01:32:08;;;;;;;19.25;11.13;;;;;;;10.72;58.96;100414.53;5031087;27;101749;-73
2022/04/25 01:34:37;;;;;;;19.35;10.50;;;;;;;11.18;57.40;100405.50;5020565;27;98637;-73
2022/04/25 01:37:06;;;;;;;22.58;11.10;;;;;;;11.71;55.38;100412.84;5030975;27;98449;-72
2022/04/25 01:39:35;;;;;;;20.83;10.40;;;;;;;11.10;56.90;100419.06;5023237;27;96935;-73
2022/04/25 01:42:02;;;;;;;22.02;10.73;;;;;;;11.05;57.63;100412.25;5024620;28;99245;-73
2022/04/25 01:44:28;;;;;;;22.00;11.07;;;;;;;11.14;56.74;100417.16;5023971;27;98940;-73
2022/04/25 01:46:54;;;;;;;17.45;11.15;;;;;;;11.53;55.74;100412.78;5028416;28;96796;-74
2022/04/25 01:49:21;;;;;;;19.77;11.52;;;;;;;10.93;57.12;100418.06;5031747;27;96850;-73
2022/04/25 01:51:47;;;;;;;23.30;12.00;;;;;;;10.83;57.79;100422.03;5029292;27;98940;-73
2022/04/25 01:54:17;;;;;;;22.17;11.77;;;;;;;11.25;57.35;100420.19;5030016;27;98852;-73
2022/04/25 01:56:44;;;;;;;20.67;11.40;;;;;;;12.01;54.64;100422.09;5028734;27;96875;-72
2022/04/25 01:59:11;;;;;;;21.35;11.00;;;;;;;12.26;53.46;100419.16;5024615;27;97040;-73
2022/04/25 02:01:37;;;;;;;16.20;10.30;;;;;;;11.98;53.72;100416.94;5029134;27;99129;-72
2022/04/25 02:04:04;;;;;;;19.95;11.30;;;;;;;11.68;54.52;100413.00;5027517;27;98361;-74
2022/04/25 02:06:30;;;;;;;20.27;11.55;;;;;;;11.48;55.68;100414.78;5030403;27;96818;-73
2022/04/25 02:08:57;;;;;;;24.33;11.52;;;;;;;11.56;55.33;100419.69;5027598;27;96994;-73
2022/04/25 02:11:24;;;;;;;20.45;10.65;;;;;;;11.89;54.03;100414.69;5030133;28;98914;-73
2022/04/25 02:13:53;;;;;;;19.75;10.93;;;;;;;11.54;55.04;100425.06;5031838;28;98856;-73
2022/04/25 02:16:20;;;;;;;22.63;10.95;;;;;;;11.49;54.86;100419.09;5022795;27;97181;-74
2022/04/25 02:18:46;;;;;;;23.98;11.90;;;;;;;11.33;56.33;100425.16;5029103;27;96790;-73
2022/04/25 02:21:13;;;;;;;26.88;12.02;;;;;;;11.55;55.01;100423.28;5030129;27;98914;-73
2022/04/25 02:23:41;;;;;;;25.83;11.93;;;;;;;11.40;55.78;100424.81;5024787;27;99169;-74
2022/04/25 02:26:08;;;;;;;21.95;11.75;;;;;;;11.42;55.74;100417.66;5024030;27;98676;-74
2022/04/25 02:28:36;;;;;;;23.70;12.07;;;;;;;10.88;56.76;100433.25;5032635;28;96891;-74
2022/04/25 02:31:05;;;;;;;23.88;12.27;;;;;;;10.39;58.21;100429.97;5023942;27;100733;-73
2022/04/25 02:33:32;;;;;;;22.05;12.35;;;;;;;10.82;57.45;100436.16;5024822;27;99132;-73
2022/04/25 02:35:59;;;;;;;24.38;12.88;;;;;;;10.91;57.27;100430.47;5029475;27;97529;-73
2022/04/25 02:38:25;;;;;;;26.98;13.07;;;;;;;11.27;56.05;100446.56;5030414;28;96816;-73
2022/04/25 02:41:05;;;;;;;22.30;11.82;;;;;;;11.07;56.44;100442.13;5025645;27;98952;-74
2022/04/25 02:43:32;;;;;;;23.77;12.68;;;;;;;11.59;55.00;100436.31;5030360;27;97794;-72
2022/04/25 02:45:58;;;;;;;19.85;12.57;;;;;;;11.22;55.61;100433.56;5028873;27;96902;-73
2022/04/25 02:48:26;;;;;;;23.42;12.70;;;;;;;11.66;54.91;100428.09;5028631;28;96918;-73
2022/04/25 02:50:53;;;;;;;21.73;12.75;;;;;;;11.68;54.43;100434.19;5026824;27;98326;-72
2022/04/25 02:53:19;;;;;;;26.80;13.63;;;;;;;10.72;56.93;100444.44;5025983;27;98989;-74
2022/04/25 02:55:46;;;;;;;26.90;12.63;;;;;;;10.57;57.61;100444.19;5028258;27;97057;-72
2022/04/25 02:58:14;;;;;;;21.42;12.65;;;;;;;10.92;56.84;100437.47;5025377;27;96867;-73
2022/04/25 03:00:42;;;;;;;28.15;12.70;;;;;;;10.98;56.26;100453.94;5019804;27;98999;-73
2022/04/25 03:03:09;;;;;;;24.92;13.65;;;;;;;10.61;57.38;100451.97;5027481;27;97614;-73
2022/04/25 03:05:36;;;;;;;26.17;13.48;;;;;;;10.93;56.94;100453.28;5022987;27;96921;-73
2022/04/25 03:08:03;;;;;;;25.15;13.05;;;;;;;11.52;54.92;100448.09;5031156;27;97062;-73
2022/04/25 03:10:29;;;;;;;21.95;12.85;;;;;;;10.91;56.40;100452.47;5021746;27;98631;-73
2022/04/25 03:12:56;;;;;;;24.17;12.85;;;;;;;10.85;56.65;100457.16;5023894;27;98829;-74
2022/04/25 03:15:23;;;;;;;23.13;13.77;;;;;;;11.26;56.09;100455.44;5020013;27;96716;-74
2022/04/25 03:17:49;;;;;;;24.23;13.43;;;;;;;11.09;56.30;100453.53;5030648;28;97497;-73
2022/04/25 03:20:16;;;;;;;24.02;13.23;;;;;;;11.44;54.93;100454.63;5025082;28;98869;-74
2022/04/25 03:22:44;;;;;;;24.55;13.25;;;;;;;10.56;57.05;100461.88;5024810;27;98898;-74
2022/04/25 03:25:10;;;;;;;23.60;12.38;;;;;;;11.19;56.20;100470.69;5027194;27;97651;-74
2022/04/25 03:27:37;;;;;;;21.65;12.45;;;;;;;11.09;55.92;100474.66;5028369;28;97596;-68
2022/04/25 03:30:04;;;;;;;21.52;13.00;;;;;;;11.17;56.15;100472.53;5025404;27;98924;-67
2022/04/25 03:32:30;;;;;;;23.15;12.85;;;;;;;11.53;55.32;100478.91;5021964;27;98825;-66
2022/04/25 03:34:57;;;;;;;22.90;12.43;;;;;;;11.58;54.62;100473.41;5032482;28;96812;-67
2022/04/25 03:37:24;;;;;;;22.25;12.13;;;;;;;11.73;53.94;100464.81;5030441;27;97613;-67
2022/04/25 03:39:51;;;;;;;21.73;12.48;;;;;;;10.56;57.39;100480.34;5027204;27;99254;-68
2022/04/25 03:42:18;;;;;;;25.60;13.88;;;;;;;10.44;57.88;100475.53;5031805;27;98907;-68
2022/04/25 03:44:45;;;;;;;23.80;12.80;;;;;;;11.04;56.50;100479.28;5032265;27;97687;-68
2022/04/25 03:47:11;;;;;;;26.35;14.70;;;;;;;10.55;57.60;100485.69;5033264;28;96960;-67
2022/04/25 03:49:37;;;;;;;24.13;13.20;;;;;;;10.50;57.63;100482.38;5029437;27;100658;-66
2022/04/25 03:52:04;;;;;;;23.25;12.75;;;;;;;10.91;56.47;100491.28;5029743;27;98491;-67
2022/04/25 03:57:16;;;;;;;23.75;13.25;;;;;;;10.59;57.11;100495.22;5023867;27;96937;-66
2022/04/25 03:59:43;;;;;;;26.60;14.38;;;;;;;10.47;57.92;100496.56;5028787;28;99245;-67
2022/04/25 04:02:09;;;;;;;27.45;13.57;;;;;;;11.24;55.58;100492.53;5030352;27;98079;-67
2022/04/25 04:04:36;;;;;;;21.38;12.82;;;;;;;11.76;53.63;100501.75;5029688;27;98261;-67
2022/04/25 04:07:02;;;;;;;31.95;13.38;;;;;;;11.89;53.10;100499.41;5032059;27;96998;-67
2022/04/25 04:09:47;;;;;;;25.88;12.52;;;;;;;10.66;56.83;100507.25;5032781;27;99407;-67
2022/04/25 04:12:14;;;;;;;24.70;13.02;;;;;;;11.27;54.86;100512.69;5027203;28;99363;-67
2022/04/25 04:14:42;;;;;;;25.17;12.75;;;;;;;11.37;54.36;100501.66;5030181;28;97085;-66
2022/04/25 04:17:09;;;;;;;23.13;12.43;;;;;;;10.95;55.39;100511.41;5022330;28;99576;-67
2022/04/25 04:19:36;;;;;;;27.00;13.57;;;;;;;10.53;56.77;100512.16;5034101;28;97705;-67
2022/04/25 04:22:03;;;;;;;26.85;13.27;;;;;;;10.73;56.09;100514.88;5032852;27;101638;-67
2022/04/25 04:24:31;;;;;;;22.13;13.30;;;;;;;10.89;55.93;100522.22;5029349;27;97405;-67
2022/04/25 04:26:57;;;;;;;25.05;13.35;;;;;;;11.13;55.26;100527.38;5026458;27;97838;-67
2022/04/25 04:29:24;;;;;;;25.02;12.88;;;;;;;10.43;56.85;100526.66;5024006;28;99346;-69
2022/04/25 04:31:52;;;;;;;27.45;13.20;;;;;;;10.11;58.18;100527.81;5028534;28;99086;-68
2022/04/25 04:34:18;;;;;;;19.52;12.60;;;;;;;10.30;57.76;100533.34;5023406;27;96674;-68
2022/04/25 04:36:44;;;;;;;25.00;13.63;;;;;;;10.88;55.92;100536.34;5031319;28;97566;-73
2022/04/25 04:39:11;;;;;;;27.38;14.80;;;;;;;10.47;57.05;100546.75;5031092;27;100407;-73
2022/04/25 04:41:37;;;;;;;27.33;13.48;;;;;;;11.03;55.35;100541.88;5026105;28;99126;-73
2022/04/25 04:44:04;;;;;;;24.27;13.40;;;;;;;11.22;54.72;100549.06;5034178;27;96732;-74
2022/04/25 04:46:30;;;;;;;25.17;13.35;;;;;;;11.30;54.69;100554.88;5025729;27;96793;-74
2022/04/25 04:48:58;;;;;;;23.38;13.30;;;;;;;11.26;54.34;100548.00;5029481;27;99580;-73
2022/04/25 04:51:25;;;;;;;32.10;14.18;;;;;;;10.67;56.26;100553.91;5032330;28;98011;-73
2022/04/25 04:53:51;;;;;;;26.27;14.38;;;;;;;11.11;55.14;100557.41;5031050;28;96859;-73
2022/04/25 04:56:17;;;;;;;23.38;13.63;;;;;;;11.60;53.79;100558.91;5026186;28;97295;-68
2022/04/25 04:58:45;;;;;;;24.08;13.32;;;;;;;11.63;53.60;100564.06;5032010;27;99166;-68
2022/04/25 05:01:12;;;;;;;23.30;12.85;;;;;;;11.75;53.12;100563.56;5027653;27;100595;-67
2022/04/25 05:03:41;;;;;;;24.88;12.98;;;;;;;10.45;56.00;100559.16;5028626;28;96808;-67
2022/04/25 05:06:09;;;;;;;27.02;13.05;;;;;;;11.25;54.53;100563.00;5029194;28;97466;-67
2022/04/25 05:08:35;;;;;;;24.23;12.77;;;;;;;10.89;54.73;100575.09;5024594;28;99276;-67
2022/04/25 05:11:02;;;;;;;27.75;12.75;;;;;;;10.40;57.19;100569.03;5028477;27;99356;-69
2022/04/25 05:13:31;;;;;;;21.40;12.23;;;;;;;9.96;57.88;100571.50;5023130;27;96924;-67
2022/04/25 05:15:57;;;;;;;21.63;12.18;;;;;;;10.19;57.75;100561.91;5032758;28;96832;-67
2022/04/25 05:18:24;;;;;;;26.42;11.82;;;;;;;10.31;57.14;100572.00;5026974;28;100816;-66
2022/04/25 05:20:51;;;;;;;22.00;12.02;;;;;;;10.52;56.98;100579.13;5032745;28;97679;-66
2022/04/25 05:23:19;;;;;;;23.15;11.95;;;;;;;10.80;55.76;100581.59;5030932;27;96807;-67
2022/04/25 05:25:45;;;;;;;24.23;10.77;;;;;;;11.03;55.86;100588.59;5032060;27;96903;-67
2022/04/25 05:28:12;;;;;;;23.23;11.63;;;;;;;11.43;54.29;100591.34;5023025;27;99266;-67
2022/04/25 05:30:39;;;;;;;21.75;10.40;;;;;;;10.63;55.68;100592.78;5030055;27;99019;-73
2022/04/25 05:33:05;;;;;;;18.98;10.63;;;;;;;11.56;53.90;100599.63;5026488;27;96824;-74
2022/04/25 05:35:33;;;;;;;17.77;10.40;;;;;;;11.23;54.69;100593.94;5030033;27;98201;-68
2022/04/25 05:38:01;;;;;;;17.90;10.60;;;;;;;11.67;53.38;100601.84;5026129;27;98991;-67
2022/04/25 05:40:30;;;;;;;23.60;11.23;;;;;;;11.98;52.46;100597.84;5019151;28;98925;-72
2022/04/25 05:42:57;;;;;;;19.75;11.23;;;;;;;11.18;54.26;100604.72;5024211;27;96862;-74
2022/04/25 05:45:25;;;;;;;24.40;10.48;;;;;;;11.58;53.34;100608.38;5027207;27;97135;-75
2022/04/25 05:47:54;;;;;;;17.05;10.15;;;;;;;11.49;54.07;100609.63;5028255;27;98879;-73
2022/04/25 05:53:05;;;;;;;21.30;10.02;;;;;;;11.26;54.63;100612.34;5027567;27;96858;-73
2022/04/25 05:55:34;;;;;;;23.20;10.70;;;;;;;11.15;54.88;100612.78;5022668;28;98602;-68
2022/04/25 05:58:02;;;;;;;17.80;9.75;;;;;;;11.47;54.23;100615.91;5022702;27;102133;-66
2022/04/25 06:00:30;;;;;;;16.10;9.10;;;;;;;12.00;52.56;100615.47;5026899;28;99012;-68
2022/04/25 06:02:57;;;;;;;21.63;8.85;;;;;;;11.88;52.75;100617.69;5024103;28;97192;-67
2022/04/25 06:05:24;;;;;;;19.27;8.73;;;;;;;12.19;51.94;100621.69;5024024;27;99330;-68
2022/04/25 06:07:51;;;;;;;15.05;8.38;;;;;;;12.58;50.76;100619.91;5021856;28;99119;-69
2022/04/25 06:10:19;;;;;;;15.77;8.10;;;;;;;12.16;51.50;100627.97;5021707;27;98934;-67
2022/04/25 06:12:48;;;;;;;18.17;8.55;;;;;;;12.11;52.18;100631.75;5024323;27;98952;-67
2022/04/25 06:15:16;;;;;;;20.75;8.93;;;;;;;11.91;52.13;100633.47;5020336;27;98449;-67
2022/04/25 06:17:43;;;;;;;15.48;8.00;;;;;;;12.09;52.53;100634.44;5023172;27;99398;-68
2022/04/25 06:20:11;;;;;;;16.10;7.95;;;;;;;12.45;51.00;100636.41;5025162;27;99221;-68
2022/04/25 06:22:38;;;;;;;15.23;6.47;;;;;;;11.37;53.46;100639.22;5022603;28;96746;-67
2022/04/25 06:25:06;;;;;;;10.45;6.45;;;;;;;11.30;54.42;100639.53;5023206;27;97305;-68
2022/04/25 06:27:33;;;;;;;16.00;6.55;;;;;;;11.88;52.06;100652.13;5016753;28;98998;-68
2022/04/25 06:30:00;;;;;;;18.30;6.50;;;;;;;11.54;53.39;100655.28;5021023;28;98890;-74
2022/04/25 06:32:27;;;;;;;16.70;6.40;;;;;;;11.77;52.91;100656.16;5020279;27;97370;-74
2022/04/25 06:34:54;;;;;;;12.88;6.57;;;;;;;11.29;53.91;100656.34;5021015;27;97425;-73
2022/04/25 06:37:20;;;;;;;17.88;6.90;;;;;;;11.28;54.10;100662.56;5017096;27;98900;-74
2022/04/25 06:39:46;;;;;;;16.20;6.78;;;;;;;11.70;53.21;100662.59;5019887;27;101370;-74
2022/04/25 06:42:13;;;;;;;13.65;6.90;;;;;;;12.18;51.91;100662.34;5020919;27;97343;-69
2022/04/25 06:44:40;;;;;;;12.32;6.80;;;;;;;12.25;51.47;100663.78;5032364;27;97181;-68
2022/04/25 06:47:08;;;;;;;15.15;6.35;;;;;;;12.48;50.95;100670.72;5022199;27;98915;-68
2022/04/25 06:49:34;;;;;;;10.88;6.60;;;;;;;12.38;50.94;100665.84;5024569;27;99365;-67
2022/04/25 06:52:02;;;;;;;10.10;6.35;;;;;;;13.55;48.21;100665.69;5019895;27;96784;-68
2022/04/25 06:54:30;;;;;;;9.20;6.18;;;;;;;12.78;50.14;100669.34;5019383;27;97416;-67
2022/04/25 06:56:58;;;;;;;11.77;6.78;;;;;;;13.13;49.15;100670.38;5024429;27;99036;-68
2022/04/25 06:59:25;;;;;;;16.00;6.75;;;;;;;13.20;49.01;100671.81;5015832;27;99082;-68
2022/04/25 07:01:55;;;;;;;13.35;6.35;;;;;;;13.26;48.54;100670.69;5027606;28;97167;-67
2022/04/25 07:04:23;;;;;;;13.65;6.50;;;;;;;12.74;49.74;100684.53;5022712;27;96953;-68
2022/04/25 07:06:50;;;;;;;12.55;5.95;;;;;;;12.56;50.58;100679.19;5021399;27;101287;-67
2022/04/25 07:09:19;;;;;;;14.02;5.88;;;;;;;12.68;50.65;100681.28;5021101;28;97868;-68
2022/04/25 07:11:47;;;;;;;12.20;6.03;;;;;;;12.74;50.43;100679.22;5019121;28;97160;-68
2022/04/25 07:14:15;;;;;;;10.35;6.28;;;;;;;12.70;50.39;100676.78;5024614;27;97682;-68
2022/04/25 07:16:41;;;;;;;15.93;6.70;;;;;;;12.64;50.43;100679.72;5018650;27;99255;-69
2022/04/25 07:19:08;;;;;;;12.95;7.00;;;;;;;12.98;50.06;100685.22;5017673;27;98404;-68
2022/04/25 07:29:49;;;;;;;15.93;6.70;;;;;;;12.33;51.50;100699.63;5023964;28;97624;-68
2022/04/25 07:32:16;;;;;;;16.58;6.15;;;;;;;11.85;53.12;100702.56;5024043;27;96770;-67
2022/04/25 07:34:43;;;;;;;13.30;6.60;;;;;;;11.55;53.94;100699.34;5025421;27;97268;-68
2022/04/25 07:37:11;;;;;;;15.77;6.95;;;;;;;11.90;53.89;100705.00;5020563;27;100364;-68
2022/04/25 07:39:37;;;;;;;12.75;6.78;;;;;;;12.11;52.65;100713.84;5021367;27;98939;-68
2022/04/25 07:42:05;;;;;;;13.13;6.13;;;;;;;13.07;50.48;100706.00;5019739;27;97189;-68
2022/04/25 07:44:31;;;;;;;15.10;6.93;;;;;;;13.15;50.00;100711.84;5019338;27;98942;-68
2022/04/25 07:46:58;;;;;;;18.00;7.18;;;;;;;13.26;49.57;100708.66;5018643;27;99368;-68
2022/04/25 07:49:25;;;;;;;11.93;6.28;;;;;;;13.27;49.73;100720.16;5020378;27;100842;-66
2022/04/25 07:51:51;;;;;;;15.00;6.90;;;;;;;12.33;52.04;100727.91;5021247;27;98546;-68
2022/04/25 07:54:19;;;;;;;13.00;6.47;;;;;;;12.95;50.67;100721.59;5023590;27;97760;-67
2022/04/25 07:56:46;;;;;;;17.45;6.57;;;;;;;12.90;50.55;100721.84;5018997;27;99248;-68
2022/04/25 07:59:13;;;;;;;14.15;6.10;;;;;;;12.38;51.76;100724.13;5024810;27;99117;-69
2022/04/25 08:01:39;;;;;;;13.38;6.55;;;;;;;12.37;52.16;100735.66;5018463;27;97533;-68
2022/04/25 08:04:06;;;;;;;13.18;6.68;;;;;;;12.78;51.23;100733.00;5010086;27;98330;-67
2022/04/25 08:06:32;;;;;;;14.70;6.68;;;;;;;12.77;50.91;100731.25;5021869;27;99308;-67
2022/04/25 08:09:01;;;;;;;14.60;6.72;;;;;;;13.51;48.91;100737.59;5019648;27;101044;-68
2022/04/25 08:11:30;;;;;;;14.20;6.20;;;;;;;13.43;48.85;100737.09;5018073;28;97598;-68
2022/04/25 08:19:24;;;;;;;12.88;6.15;;;;;;;14.54;45.59;100718.28;5025628;27;97230;-67
2022/04/25 08:21:51;;;;;;;15.25;5.45;;;;;;;13.64;47.71;100738.72;5021575;27;96897;-67
2022/04/25 08:24:18;;;;;;;10.43;5.50;;;;;;;12.86;49.65;100740.59;5020885;27;97370;-68
2022/04/25 08:26:46;;;;;;;10.27;5.07;;;;;;;13.31;49.20;100737.66;5023739;27;97768;-67
2022/04/25 08:29:12;;;;;;;9.18;5.57;;;;;;;14.22;46.47;100728.75;5024877;27;102568;-68
2022/04/25 08:31:39;;;;;;;12.38;5.88;;;;;;;13.29;48.38;100745.69;5024029;27;97536;-68
2022/04/25 08:34:08;;;;;;;9.07;5.45;;;;;;;12.84;49.96;100745.13;5021477;27;98949;-67
2022/04/25 08:36:40;;;;;;;10.98;5.72;;;;;;;12.55;50.49;100746.38;5023855;27;99227;-68
2022/04/25 08:39:06;;;;;;;9.32;5.43;;;;;;;13.09;49.53;100748.38;5023183;27;99493;-66
2022/04/25 08:41:38;;;;;;;13.95;5.70;;;;;;;13.95;47.50;100749.56;5023938;28;99323;-68
2022/04/25 08:44:07;;;;;;;14.65;5.60;;;;;;;13.86;47.64;100741.19;5025314;27;97578;-69
2022/04/25 08:46:36;;;;;;;13.60;5.38;;;;;;;14.22;46.44;100746.47;5024528;27;99675;-67
2022/04/25 08:49:04;;;;;;;13.32;5.40;;;;;;;13.82;47.24;100752.91;5025794;27;98940;-67
2022/04/25 08:51:34;;;;;;;12.25;5.57;;;;;;;13.22;48.99;100754.88;5024699;27;97861;-68
2022/04/25 08:54:01;;;;;;;17.25;5.43;;;;;;;12.95;49.92;100762.25;5021783;27;97551;-67
2022/04/25 08:56:28;;;;;;;10.05;4.90;;;;;;;12.90;49.97;100771.34;5028183;27;101315;-67
2022/04/25 08:58:56;;;;;;;15.82;6.68;;;;;;;12.92;49.74;100770.38;5024891;27;97916;-68
2022/04/25 09:01:25;;;;;;;7.97;5.38;;;;;;;13.37;48.92;100777.19;5024365;27;97678;-68
2022/04/25 09:03:51;;;;;;;11.45;5.70;;;;;;;13.77;47.65;100774.38;5015012;27;97350;-68
2022/04/25 09:06:18;;;;;;;15.82;6.03;;;;;;;14.21;46.00;100773.97;5025525;27;98908;-67
2022/04/25 09:08:45;;;;;;;15.60;5.30;;;;;;;14.31;45.71;100780.53;5022405;27;101694;-66
2022/04/25 09:13:56;;;;;;;13.57;6.10;;;;;;;13.67;47.35;100777.53;5025113;27;97333;-67
2022/04/25 09:16:24;;;;;;;10.45;4.53;;;;;;;13.99;47.01;100776.84;5024729;27;99070;-68
2022/04/25 09:18:51;;;;;;;10.20;5.47;;;;;;;14.49;45.32;100779.66;5028061;27;102611;-67
2022/04/25 09:21:17;;;;;;;12.02;4.93;;;;;;;14.79;44.46;100784.34;5032478;27;97098;-66
2022/04/25 09:23:44;;;;;;;9.02;4.75;;;;;;;14.69;45.08;100782.16;5027117;27;96802;-68
2022/04/25 09:26:11;;;;;;;10.90;4.70;;;;;;;15.15;43.79;100785.06;5025485;28;98895;-67
2022/04/25 09:28:48;;;;;;;9.90;4.18;;;;;;;15.27;43.75;100780.88;5021420;27;99112;-67
2022/04/25 09:31:15;;;;;;;5.45;4.30;;;;;;;15.52;43.16;100783.91;5022607;27;97441;-68
2022/04/25 09:33:43;;;;;;;7.15;4.53;;;;;;;15.06;43.99;100793.53;5021551;27;97485;-67
2022/04/25 09:36:10;;;;;;;5.10;3.97;;;;;;;14.91;44.19;100791.66;5025810;28;99332;-67
2022/04/25 09:38:39;;;;;;;9.95;4.28;;;;;;;16.00;42.03;100793.66;5019689;27;99873;-68
2022/04/25 09:41:10;;;;;;;44.35;21.23;;;;;;;15.69;42.80;100790.97;5021569;27;97448;-68
2022/04/25 09:43:38;;;;;;;10.15;5.25;;;;;;;15.67;42.32;100788.44;5027696;28;97239;-68
2022/04/25 09:46:07;;;;;;;11.00;4.72;;;;;;;14.40;45.57;100805.84;5026299;27;98730;-68
2022/04/25 09:48:34;;;;;;;11.13;4.43;;;;;;;14.63;44.90;100802.91;5019975;27;102075;-68
2022/04/25 09:51:07;;;;;;;8.00;4.75;;;;;;;14.94;44.68;100803.03;5024455;27;98250;-69
2022/04/25 09:53:42;;;;;;;7.50;4.80;;;;;;;14.88;44.34;100802.47;5008356;28;97678;-69
2022/04/25 09:56:13;;;;;;;7.75;4.43;;;;;;;15.40;43.20;100800.56;5021440;27;100913;-67
2022/04/25 09:58:44;;;;;;;9.98;3.78;;;;;;;15.40;43.42;100797.91;5023143;27;99489;-66
2022/04/25 10:01:14;;;;;;;7.63;3.65;;;;;;;16.51;41.06;100791.56;5018350;27;97570;-67
2022/04/25 10:03:42;;;;;;;5.32;3.70;;;;;;;16.46;41.33;100798.97;5019773;27;97346;-68
2022/04/25 10:06:10;;;;;;;13.45;4.15;;;;;;;16.38;41.41;100796.75;5025233;27;99060;-73
2022/04/25 10:08:37;;;;;;;6.78;3.90;;;;;;;15.94;42.21;100797.53;5021939;28;101818;-74
2022/04/25 10:11:06;;;;;;;8.82;3.60;;;;;;;15.46;42.63;100802.88;5023075;27;97234;-73
2022/04/25 10:13:33;;;;;;;8.63;3.88;;;;;;;15.08;43.84;100799.63;5033415;28;96850;-74
2022/04/25 10:16:00;;;;;;;8.00;3.70;;;;;;;15.16;43.46;100795.59;5040810;27;99752;-73
2022/04/25 10:18:28;;;;;;;9.27;4.45;;;;;;;15.15;43.73;100803.69;5044776;27;97611;-74
2022/04/25 10:20:55;;;;;;;9.68;4.65;;;;;;;15.32;43.33;100797.44;5048793;27;98510;-74
2022/04/25 10:23:24;;;;;;;8.63;3.58;;;;;;;16.54;41.00;100804.72;5044298;28;97145;-73
2022/04/25 10:25:52;;;;;;;8.68;4.40;;;;;;;15.95;41.88;100804.56;5032606;27;96745;-74
2022/04/25 10:28:23;;;;;;;8.15;4.07;;;;;;;16.11;41.27;100809.03;5030690;27;98803;-75
2022/04/25 10:30:50;;;;;;;9.68;3.70;;;;;;;15.69;42.42;100809.63;5024131;27;97847;-74
2022/04/25 10:33:18;;;;;;;8.18;3.50;;;;;;;16.05;41.41;100810.25;5027027;27;97224;-73
2022/04/25 10:35:47;;;;;;;9.73;3.67;;;;;;;16.50;40.05;100809.38;5028876;27;98900;-73
2022/04/25 10:38:49;;;;;;;7.40;3.63;;;;;;;17.02;39.14;100809.81;5022961;27;98749;-72
2022/04/25 10:44:47;;;;;;;10.98;3.85;;;;;;;16.57;40.39;100812.53;5021316;28;98892;-74
2022/04/25 10:47:16;;;;;;;9.02;3.97;;;;;;;16.88;39.60;100811.59;5022855;27;99432;-75
2022/04/25 10:49:45;;;;;;;10.23;4.25;;;;;;;15.70;41.73;100814.88;5025366;27;98917;-76
2022/04/25 10:52:53;;;;;;;9.10;4.22;;;;;;;16.34;41.11;100805.91;5021966;27;96916;-74
2022/04/25 10:55:23;;;;;;;7.60;3.88;;;;;;;16.28;40.48;100815.09;5021280;27;99406;-75
2022/04/25 10:58:12;;;;;;;18.17;3.63;;;;;;;15.83;41.75;100815.03;5023061;27;99435;-75
2022/04/25 11:00:53;;;;;;;11.75;3.63;;;;;;;16.14;40.89;100820.38;5025655;27;98842;-74
2022/04/25 11:03:31;;;;;;;5.70;3.20;;;;;;;16.46;39.89;100815.00;5024335;27;97152;-73
2022/04/25 11:06:00;;;;;;;8.32;3.30;;;;;;;16.43;40.38;100817.81;5023790;27;96976;-74
2022/04/25 11:08:29;;;;;;;7.88;3.58;;;;;;;15.91;41.33;100816.34;5021936;27;98989;-73
2022/04/25 11:11:20;;;;;;;5.70;3.33;;;;;;;16.44;40.70;100827.53;5017028;27;98776;-74
2022/04/25 11:14:15;;;;;;;10.23;3.38;;;;;;;16.51;40.51;100824.44;5022166;27;97354;-72
2022/04/25 11:16:42;;;;;;;8.80;3.70;;;;;;;16.99;39.46;100826.03;5013533;27;98631;-74
2022/04/25 11:19:11;;;;;;;5.25;3.25;;;;;;;16.99;39.00;100841.19;5021220;27;99317;-73
2022/04/25 11:21:45;;;;;;;6.10;3.08;;;;;;;16.31;40.28;100836.25;5025431;27;98841;-74
2022/04/25 11:24:28;;;;;;;10.02;3.35;;;;;;;17.31;38.36;100842.75;5023116;27;97297;-74
2022/04/25 11:26:57;;;;;;;7.13;3.00;;;;;;;17.16;38.41;100845.47;5017269;27;98923;-74
2022/04/25 11:29:24;;;;;;;6.13;3.13;;;;;;;16.57;39.56;100844.56;5019022;27;98604;-74
2022/04/25 11:31:51;;;;;;;4.85;2.80;;;;;;;17.07;38.79;100847.75;5023504;27;98895;-79
2022/04/25 11:34:22;;;;;;;5.40;3.38;;;;;;;16.29;40.19;100853.28;5024713;27;98322;-78
2022/04/25 11:36:48;;;;;;;7.47;3.00;;;;;;;16.47;40.15;100846.91;5027558;27;97039;-78
2022/04/25 11:42:02;;;;;;;7.13;3.42;;;;;;;16.44;40.46;100855.06;5024654;28;97132;-78
2022/04/25 11:44:29;;;;;;;9.63;3.13;;;;;;;17.47;38.52;100855.97;5019728;27;98845;-74
2022/04/25 11:46:56;;;;;;;8.45;3.38;;;;;;;17.83;37.60;100866.22;5023641;28;98755;-75
2022/04/25 11:49:30;;;;;;;10.07;3.10;;;;;;;17.95;37.49;100864.56;5019393;27;98898;-74
2022/04/25 11:51:58;;;;;;;9.70;4.05;;;;;;;18.13;37.14;100861.56;5018631;27;98866;-74